sensor_id;sensor_type;location;lat;lon;timestamp;P1;durP1;ratioP1;P2;durP2;ratioP2
5774;SDS011;2913;51.120;6.772;2022-10-16T00:00:44;7.15;;;3.42;;
5774;SDS011;2913;51.120;6.772;2022-10-16T00:03:11;17.90;;;3.50;;
5774;SDS011;2913;51.120;6.772;2022-10-16T00:05:43;12.35;;;3.53;;
5774;SDS011;2913;51.120;6.772;2022-10-16T00:08:11;11.40;;;3.25;;
5774;SDS011;2913;51.120;6.772;2022-10-16T00:10:38;15.18;;;4.55;;
5774;SDS011;2913;51.120;6.772;2022-10-16T00:13:04;11.38;;;3.35;;
5774;SDS011;2913;51.120;6.772;2022-10-16T00:15:36;15.02;;;3.38;;
5774;SDS011;2913;51.120;6.772;2022-10-16T00:18:04;6.50;;;3.30;;
5774;SDS011;2913;51.120;6.772;2022-10-16T00:20:34;7.95;;;3.22;;
5774;SDS011;2913;51.120;6.772;2022-10-16T00:23:00;5.30;;;3.33;;
5774;SDS011;2913;51.120;6.772;2022-10-16T00:25:25;5.45;;;3.10;;
5774;SDS011;2913;51.120;6.772;2022-10-16T00:27:51;9.48;;;3.58;;
5774;SDS011;2913;51.120;6.772;2022-10-16T00:30:16;9.05;;;3.30;;
5774;SDS011;2913;51.120;6.772;2022-10-16T00:32:42;8.88;;;2.92;;
5774;SDS011;2913;51.120;6.772;2022-10-16T00:35:08;9.63;;;3.45;;
5774;SDS011;2913;51.120;6.772;2022-10-16T00:37:36;8.18;;;3.50;;
5774;SDS011;2913;51.120;6.772;2022-10-16T00:40:02;9.90;;;3.58;;
5774;SDS011;2913;51.120;6.772;2022-10-16T00:42:27;9.23;;;3.47;;
5774;SDS011;2913;51.120;6.772;2022-10-16T00:44:54;10.57;;;4.07;;
5774;SDS011;2913;51.120;6.772;2022-10-16T00:50:13;6.65;;;3.92;;
5774;SDS011;2913;51.120;6.772;2022-10-16T00:52:48;10.27;;;3.90;;
5774;SDS011;2913;51.120;6.772;2022-10-16T00:55:16;8.95;;;3.65;;
5774;SDS011;2913;51.120;6.772;2022-10-16T00:57:43;20.10;;;4.28;;
5774;SDS011;2913;51.120;6.772;2022-10-16T01:00:11;8.50;;;4.05;;
5774;SDS011;2913;51.120;6.772;2022-10-16T01:02:39;11.23;;;4.30;;
5774;SDS011;2913;51.120;6.772;2022-10-16T01:05:05;13.00;;;4.20;;
5774;SDS011;2913;51.120;6.772;2022-10-16T01:10:38;6.57;;;3.70;;
5774;SDS011;2913;51.120;6.772;2022-10-16T01:16:34;8.93;;;3.75;;
5774;SDS011;2913;51.120;6.772;2022-10-16T01:22:11;13.07;;;3.78;;
5774;SDS011;2913;51.120;6.772;2022-10-16T01:24:39;13.68;;;4.38;;
5774;SDS011;2913;51.120;6.772;2022-10-16T01:27:11;6.75;;;3.80;;
5774;SDS011;2913;51.120;6.772;2022-10-16T01:33:01;11.68;;;4.03;;
5774;SDS011;2913;51.120;6.772;2022-10-16T01:35:10;8.57;;;3.75;;
5774;SDS011;2913;51.120;6.772;2022-10-16T01:37:46;13.73;;;4.00;;
5774;SDS011;2913;51.120;6.772;2022-10-16T01:40:14;7.93;;;3.67;;
5774;SDS011;2913;51.120;6.772;2022-10-16T01:42:48;7.28;;;3.63;;
5774;SDS011;2913;51.120;6.772;2022-10-16T01:45:21;7.47;;;3.78;;
5774;SDS011;2913;51.120;6.772;2022-10-16T01:47:47;12.80;;;4.15;;
5774;SDS011;2913;51.120;6.772;2022-10-16T01:50:16;5.13;;;3.40;;
5774;SDS011;2913;51.120;6.772;2022-10-16T01:52:48;8.77;;;3.50;;
5774;SDS011;2913;51.120;6.772;2022-10-16T01:55:21;6.03;;;3.60;;
5774;SDS011;2913;51.120;6.772;2022-10-16T01:57:50;9.27;;;4.20;;
5774;SDS011;2913;51.120;6.772;2022-10-16T02:00:21;8.65;;;3.70;;
5774;SDS011;2913;51.120;6.772;2022-10-16T02:02:49;8.68;;;3.60;;
5774;SDS011;2913;51.120;6.772;2022-10-16T02:05:20;7.15;;;4.00;;
5774;SDS011;2913;51.120;6.772;2022-10-16T02:07:58;10.70;;;3.95;;
5774;SDS011;2913;51.120;6.772;2022-10-16T02:10:24;7.32;;;3.72;;
5774;SDS011;2913;51.120;6.772;2022-10-16T02:12:59;8.85;;;3.75;;
5774;SDS011;2913;51.120;6.772;2022-10-16T02:15:31;9.57;;;3.97;;
5774;SDS011;2913;51.120;6.772;2022-10-16T02:17:57;7.43;;;3.78;;
5774;SDS011;2913;51.120;6.772;2022-10-16T02:20:27;7.40;;;4.00;;
5774;SDS011;2913;51.120;6.772;2022-10-16T02:22:57;11.57;;;3.50;;
5774;SDS011;2913;51.120;6.772;2022-10-16T02:27:52;7.03;;;3.35;;
5774;SDS011;2913;51.120;6.772;2022-10-16T02:30:40;7.75;;;3.60;;
5774;SDS011;2913;51.120;6.772;2022-10-16T02:33:08;6.45;;;3.85;;
5774;SDS011;2913;51.120;6.772;2022-10-16T02:35:36;12.23;;;3.95;;
5774;SDS011;2913;51.120;6.772;2022-10-16T02:38:05;9.48;;;3.70;;
5774;SDS011;2913;51.120;6.772;2022-10-16T02:40:32;7.20;;;3.85;;
5774;SDS011;2913;51.120;6.772;2022-10-16T02:42:58;7.50;;;3.63;;
5774;SDS011;2913;51.120;6.772;2022-10-16T02:45:26;9.20;;;3.70;;
5774;SDS011;2913;51.120;6.772;2022-10-16T02:47:54;7.68;;;3.40;;
5774;SDS011;2913;51.120;6.772;2022-10-16T02:50:20;6.95;;;3.80;;
5774;SDS011;2913;51.120;6.772;2022-10-16T02:52:45;10.63;;;4.03;;
5774;SDS011;2913;51.120;6.772;2022-10-16T02:55:11;9.15;;;3.45;;
5774;SDS011;2913;51.120;6.772;2022-10-16T02:57:37;5.43;;;3.50;;
5774;SDS011;2913;51.120;6.772;2022-10-16T03:00:04;14.45;;;3.42;;
5774;SDS011;2913;51.120;6.772;2022-10-16T03:02:30;7.25;;;3.40;;
5774;SDS011;2913;51.120;6.772;2022-10-16T03:04:56;13.25;;;3.90;;
5774;SDS011;2913;51.120;6.772;2022-10-16T03:07:21;4.93;;;2.95;;
5774;SDS011;2913;51.120;6.772;2022-10-16T03:09:49;10.40;;;3.10;;
5774;SDS011;2913;51.120;6.772;2022-10-16T03:12:17;6.50;;;3.22;;
5774;SDS011;2913;51.120;6.772;2022-10-16T03:14:43;5.68;;;3.10;;
5774;SDS011;2913;51.120;6.772;2022-10-16T03:17:09;6.63;;;3.15;;
5774;SDS011;2913;51.120;6.772;2022-10-16T03:19:40;5.28;;;3.25;;
5774;SDS011;2913;51.120;6.772;2022-10-16T03:22:06;5.82;;;3.20;;
5774;SDS011;2913;51.120;6.772;2022-10-16T03:24:33;4.50;;;2.83;;
5774;SDS011;2913;51.120;6.772;2022-10-16T03:27:01;9.27;;;3.03;;
5774;SDS011;2913;51.120;6.772;2022-10-16T03:29:29;6.47;;;3.08;;
5774;SDS011;2913;51.120;6.772;2022-10-16T03:31:57;6.85;;;3.05;;
5774;SDS011;2913;51.120;6.772;2022-10-16T03:34:22;7.95;;;2.75;;
5774;SDS011;2913;51.120;6.772;2022-10-16T03:36:50;12.57;;;3.08;;
5774;SDS011;2913;51.120;6.772;2022-10-16T03:39:21;9.55;;;3.17;;
5774;SDS011;2913;51.120;6.772;2022-10-16T03:41:47;8.90;;;2.90;;
5774;SDS011;2913;51.120;6.772;2022-10-16T03:44:12;7.95;;;3.15;;
5774;SDS011;2913;51.120;6.772;2022-10-16T03:46:38;5.15;;;3.17;;
5774;SDS011;2913;51.120;6.772;2022-10-16T03:49:07;7.90;;;3.03;;
5774;SDS011;2913;51.120;6.772;2022-10-16T03:51:32;11.38;;;3.10;;
5774;SDS011;2913;51.120;6.772;2022-10-16T03:53:58;5.18;;;3.13;;
5774;SDS011;2913;51.120;6.772;2022-10-16T03:56:26;6.10;;;2.70;;
5774;SDS011;2913;51.120;6.772;2022-10-16T03:58:51;7.82;;;3.03;;
5774;SDS011;2913;51.120;6.772;2022-10-16T04:01:19;4.30;;;3.03;;
5774;SDS011;2913;51.120;6.772;2022-10-16T04:03:45;4.13;;;2.60;;
5774;SDS011;2913;51.120;6.772;2022-10-16T04:06:11;9.60;;;2.83;;
5774;SDS011;2913;51.120;6.772;2022-10-16T04:08:36;4.60;;;2.78;;
5774;SDS011;2913;51.120;6.772;2022-10-16T04:11:04;10.55;;;2.88;;
5774;SDS011;2913;51.120;6.772;2022-10-16T04:13:32;5.82;;;2.60;;
5774;SDS011;2913;51.120;6.772;2022-10-16T04:15:58;7.20;;;2.40;;
5774;SDS011;2913;51.120;6.772;2022-10-16T04:18:23;7.22;;;2.53;;
5774;SDS011;2913;51.120;6.772;2022-10-16T04:20:52;5.22;;;2.47;;
5774;SDS011;2913;51.120;6.772;2022-10-16T04:23:18;9.43;;;2.50;;
5774;SDS011;2913;51.120;6.772;2022-10-16T04:25:43;9.80;;;2.72;;
5774;SDS011;2913;51.120;6.772;2022-10-16T04:28:09;4.75;;;2.53;;
5774;SDS011;2913;51.120;6.772;2022-10-16T04:30:38;9.65;;;2.38;;
5774;SDS011;2913;51.120;6.772;2022-10-16T04:33:04;5.57;;;2.08;;
5774;SDS011;2913;51.120;6.772;2022-10-16T04:35:32;2.15;;;1.80;;
5774;SDS011;2913;51.120;6.772;2022-10-16T04:38:00;5.15;;;2.20;;
5774;SDS011;2913;51.120;6.772;2022-10-16T04:40:25;4.97;;;2.42;;
5774;SDS011;2913;51.120;6.772;2022-10-16T04:42:54;3.75;;;2.63;;
5774;SDS011;2913;51.120;6.772;2022-10-16T04:45:19;5.07;;;2.50;;
5774;SDS011;2913;51.120;6.772;2022-10-16T04:47:45;4.35;;;2.50;;
5774;SDS011;2913;51.120;6.772;2022-10-16T04:50:13;8.25;;;2.53;;
5774;SDS011;2913;51.120;6.772;2022-10-16T04:52:38;4.47;;;2.33;;
5774;SDS011;2913;51.120;6.772;2022-10-16T04:55:06;3.92;;;2.20;;
5774;SDS011;2913;51.120;6.772;2022-10-16T04:57:32;5.70;;;2.92;;
5774;SDS011;2913;51.120;6.772;2022-10-16T04:59:58;6.47;;;1.98;;
5774;SDS011;2913;51.120;6.772;2022-10-16T05:02:25;5.47;;;1.92;;
5774;SDS011;2913;51.120;6.772;2022-10-16T05:04:52;9.65;;;2.50;;
5774;SDS011;2913;51.120;6.772;2022-10-16T05:07:18;4.68;;;2.35;;
5774;SDS011;2913;51.120;6.772;2022-10-16T05:09:44;4.72;;;2.50;;
5774;SDS011;2913;51.120;6.772;2022-10-16T05:12:14;12.07;;;2.45;;
5774;SDS011;2913;51.120;6.772;2022-10-16T05:14:40;3.35;;;2.47;;
5774;SDS011;2913;51.120;6.772;2022-10-16T05:17:05;8.90;;;2.40;;
5774;SDS011;2913;51.120;6.772;2022-10-16T05:19:31;4.10;;;2.40;;
5774;SDS011;2913;51.120;6.772;2022-10-16T05:21:57;3.45;;;2.35;;
5774;SDS011;2913;51.120;6.772;2022-10-16T05:24:22;5.72;;;2.40;;
5774;SDS011;2913;51.120;6.772;2022-10-16T05:26:49;6.03;;;2.60;;
5774;SDS011;2913;51.120;6.772;2022-10-16T05:29:15;7.05;;;2.20;;
5774;SDS011;2913;51.120;6.772;2022-10-16T05:31:40;6.28;;;2.70;;
5774;SDS011;2913;51.120;6.772;2022-10-16T05:34:11;6.85;;;2.50;;
5774;SDS011;2913;51.120;6.772;2022-10-16T05:36:39;5.68;;;2.80;;
5774;SDS011;2913;51.120;6.772;2022-10-16T05:39:04;7.10;;;2.97;;
5774;SDS011;2913;51.120;6.772;2022-10-16T05:41:32;10.60;;;2.78;;
5774;SDS011;2913;51.120;6.772;2022-10-16T05:43:58;4.60;;;2.60;;
5774;SDS011;2913;51.120;6.772;2022-10-16T05:46:23;12.38;;;2.83;;
5774;SDS011;2913;51.120;6.772;2022-10-16T05:48:52;5.38;;;2.80;;
5774;SDS011;2913;51.120;6.772;2022-10-16T05:51:18;11.57;;;2.67;;
5774;SDS011;2913;51.120;6.772;2022-10-16T05:53:43;6.30;;;2.78;;
5774;SDS011;2913;51.120;6.772;2022-10-16T05:56:10;8.50;;;2.60;;
5774;SDS011;2913;51.120;6.772;2022-10-16T05:58:37;11.65;;;4.25;;
5774;SDS011;2913;51.120;6.772;2022-10-16T06:01:26;4.68;;;2.50;;
5774;SDS011;2913;51.120;6.772;2022-10-16T06:03:51;6.00;;;2.72;;
5774;SDS011;2913;51.120;6.772;2022-10-16T06:06:18;9.68;;;3.58;;
5774;SDS011;2913;51.120;6.772;2022-10-16T06:08:46;11.75;;;3.17;;
5774;SDS011;2913;51.120;6.772;2022-10-16T06:11:14;7.68;;;3.28;;
5774;SDS011;2913;51.120;6.772;2022-10-16T06:13:43;6.97;;;3.05;;
5774;SDS011;2913;51.120;6.772;2022-10-16T06:16:13;5.43;;;3.00;;
5774;SDS011;2913;51.120;6.772;2022-10-16T06:18:46;6.43;;;2.78;;
5774;SDS011;2913;51.120;6.772;2022-10-16T06:21:22;7.20;;;3.58;;
5774;SDS011;2913;51.120;6.772;2022-10-16T06:23:50;5.05;;;2.70;;
5774;SDS011;2913;51.120;6.772;2022-10-16T06:26:17;6.28;;;2.83;;
5774;SDS011;2913;51.120;6.772;2022-10-16T06:28:44;6.70;;;3.22;;
5774;SDS011;2913;51.120;6.772;2022-10-16T06:31:13;6.22;;;2.90;;
5774;SDS011;2913;51.120;6.772;2022-10-16T06:33:39;10.20;;;3.25;;
5774;SDS011;2913;51.120;6.772;2022-10-16T06:38:36;6.43;;;2.60;;
5774;SDS011;2913;51.120;6.772;2022-10-16T06:41:05;6.18;;;2.95;;
5774;SDS011;2913;51.120;6.772;2022-10-16T06:43:34;6.82;;;2.70;;
5774;SDS011;2913;51.120;6.772;2022-10-16T06:46:02;6.35;;;3.00;;
5774;SDS011;2913;51.120;6.772;2022-10-16T06:48:30;7.85;;;2.60;;
5774;SDS011;2913;51.120;6.772;2022-10-16T06:53:25;4.78;;;3.15;;
5774;SDS011;2913;51.120;6.772;2022-10-16T06:55:52;6.22;;;2.63;;
5774;SDS011;2913;51.120;6.772;2022-10-16T06:58:18;6.05;;;2.60;;
5774;SDS011;2913;51.120;6.772;2022-10-16T07:00:44;4.05;;;2.45;;
5774;SDS011;2913;51.120;6.772;2022-10-16T07:03:09;7.50;;;2.85;;
5774;SDS011;2913;51.120;6.772;2022-10-16T07:05:37;6.82;;;2.53;;
5774;SDS011;2913;51.120;6.772;2022-10-16T07:08:03;4.72;;;2.55;;
5774;SDS011;2913;51.120;6.772;2022-10-16T07:10:30;13.35;;;2.53;;
5774;SDS011;2913;51.120;6.772;2022-10-16T07:12:56;8.25;;;2.50;;
5774;SDS011;2913;51.120;6.772;2022-10-16T07:15:22;8.00;;;3.15;;
5774;SDS011;2913;51.120;6.772;2022-10-16T07:17:47;5.63;;;2.72;;
5774;SDS011;2913;51.120;6.772;2022-10-16T07:20:15;8.13;;;2.60;;
5774;SDS011;2913;51.120;6.772;2022-10-16T07:22:41;9.02;;;3.50;;
5774;SDS011;2913;51.120;6.772;2022-10-16T07:25:07;12.70;;;3.60;;
5774;SDS011;2913;51.120;6.772;2022-10-16T07:27:36;6.40;;;3.22;;
5774;SDS011;2913;51.120;6.772;2022-10-16T07:30:04;6.55;;;2.88;;
5774;SDS011;2913;51.120;6.772;2022-10-16T07:32:31;5.00;;;3.10;;
5774;SDS011;2913;51.120;6.772;2022-10-16T07:34:56;12.93;;;3.03;;
5774;SDS011;2913;51.120;6.772;2022-10-16T07:37:22;11.35;;;3.35;;
5774;SDS011;2913;51.120;6.772;2022-10-16T07:39:50;7.55;;;3.22;;
5774;SDS011;2913;51.120;6.772;2022-10-16T07:42:15;5.13;;;2.70;;
5774;SDS011;2913;51.120;6.772;2022-10-16T07:44:41;6.88;;;3.13;;
5774;SDS011;2913;51.120;6.772;2022-10-16T07:47:07;6.90;;;2.88;;
5774;SDS011;2913;51.120;6.772;2022-10-16T07:49:32;6.88;;;3.53;;
5774;SDS011;2913;51.120;6.772;2022-10-16T07:51:58;7.32;;;3.42;;
5774;SDS011;2913;51.120;6.772;2022-10-16T07:54:24;8.70;;;2.55;;
5774;SDS011;2913;51.120;6.772;2022-10-16T07:56:49;5.60;;;2.75;;
5774;SDS011;2913;51.120;6.772;2022-10-16T07:59:15;8.20;;;2.63;;
5774;SDS011;2913;51.120;6.772;2022-10-16T08:01:40;6.78;;;2.60;;
5774;SDS011;2913;51.120;6.772;2022-10-16T08:04:09;7.35;;;2.50;;
5774;SDS011;2913;51.120;6.772;2022-10-16T08:06:38;4.97;;;2.30;;
5774;SDS011;2913;51.120;6.772;2022-10-16T08:09:07;16.63;;;3.10;;
5774;SDS011;2913;51.120;6.772;2022-10-16T08:11:33;10.45;;;2.55;;
5774;SDS011;2913;51.120;6.772;2022-10-16T08:13:59;6.03;;;2.13;;
5774;SDS011;2913;51.120;6.772;2022-10-16T08:16:25;6.70;;;2.92;;
5774;SDS011;2913;51.120;6.772;2022-10-16T08:18:55;3.97;;;2.30;;
5774;SDS011;2913;51.120;6.772;2022-10-16T08:21:22;7.55;;;2.50;;
5774;SDS011;2913;51.120;6.772;2022-10-16T08:23:48;8.60;;;2.42;;
5774;SDS011;2913;51.120;6.772;2022-10-16T08:26:18;11.52;;;2.30;;
5774;SDS011;2913;51.120;6.772;2022-10-16T08:28:44;4.72;;;2.20;;
5774;SDS011;2913;51.120;6.772;2022-10-16T08:33:40;10.25;;;2.90;;
5774;SDS011;2913;51.120;6.772;2022-10-16T08:36:11;6.65;;;2.25;;
5774;SDS011;2913;51.120;6.772;2022-10-16T08:38:37;4.88;;;2.00;;
5774;SDS011;2913;51.120;6.772;2022-10-16T08:41:17;4.53;;;2.42;;
5774;SDS011;2913;51.120;6.772;2022-10-16T08:46:35;6.15;;;2.45;;
5774;SDS011;2913;51.120;6.772;2022-10-16T08:49:25;18.88;;;2.25;;
5774;SDS011;2913;51.120;6.772;2022-10-16T08:51:51;10.23;;;2.28;;
5774;SDS011;2913;51.120;6.772;2022-10-16T08:54:31;9.23;;;2.30;;
5774;SDS011;2913;51.120;6.772;2022-10-16T08:57:12;27.25;;;2.78;;
5774;SDS011;2913;51.120;6.772;2022-10-16T08:59:48;6.88;;;2.25;;
5774;SDS011;2913;51.120;6.772;2022-10-16T09:02:33;9.00;;;2.08;;
5774;SDS011;2913;51.120;6.772;2022-10-16T09:13:35;4.95;;;2.00;;
5774;SDS011;2913;51.120;6.772;2022-10-16T09:16:14;6.30;;;1.60;;
5774;SDS011;2913;51.120;6.772;2022-10-16T09:21:45;7.25;;;1.98;;
5774;SDS011;2913;51.120;6.772;2022-10-16T09:24:17;7.28;;;2.08;;
5774;SDS011;2913;51.120;6.772;2022-10-16T09:26:45;5.07;;;1.70;;
5774;SDS011;2913;51.120;6.772;2022-10-16T09:29:11;9.32;;;1.80;;
5774;SDS011;2913;51.120;6.772;2022-10-16T09:31:42;9.35;;;1.88;;
5774;SDS011;2913;51.120;6.772;2022-10-16T09:34:14;9.65;;;2.80;;
5774;SDS011;2913;51.120;6.772;2022-10-16T09:36:51;2.05;;;1.25;;
5774;SDS011;2913;51.120;6.772;2022-10-16T09:39:17;3.78;;;1.65;;
5774;SDS011;2913;51.120;6.772;2022-10-16T09:41:43;6.50;;;1.20;;
5774;SDS011;2913;51.120;6.772;2022-10-16T09:44:18;5.53;;;1.85;;
5774;SDS011;2913;51.120;6.772;2022-10-16T09:46:44;2.40;;;1.10;;
5774;SDS011;2913;51.120;6.772;2022-10-16T09:49:23;4.75;;;1.30;;
5774;SDS011;2913;51.120;6.772;2022-10-16T09:52:03;9.63;;;1.48;;
5774;SDS011;2913;51.120;6.772;2022-10-16T09:54:48;7.30;;;1.42;;
5774;SDS011;2913;51.120;6.772;2022-10-16T09:57:15;3.75;;;1.40;;
5774;SDS011;2913;51.120;6.772;2022-10-16T09:59:47;7.75;;;2.00;;
5774;SDS011;2913;51.120;6.772;2022-10-16T10:02:15;5.90;;;1.80;;
5774;SDS011;2913;51.120;6.772;2022-10-16T10:04:52;14.20;;;1.80;;
5774;SDS011;2913;51.120;6.772;2022-10-16T10:07:42;20.80;;;2.20;;
5774;SDS011;2913;51.120;6.772;2022-10-16T10:10:22;13.20;;;1.90;;
5774;SDS011;2913;51.120;6.772;2022-10-16T10:12:49;5.30;;;1.42;;
5774;SDS011;2913;51.120;6.772;2022-10-16T10:15:15;6.07;;;1.30;;
5774;SDS011;2913;51.120;6.772;2022-10-16T10:17:50;4.50;;;1.40;;
5774;SDS011;2913;51.120;6.772;2022-10-16T10:20:26;10.52;;;1.50;;
5774;SDS011;2913;51.120;6.772;2022-10-16T10:22:59;8.30;;;1.48;;
5774;SDS011;2913;51.120;6.772;2022-10-16T10:25:34;4.40;;;1.13;;
5774;SDS011;2913;51.120;6.772;2022-10-16T10:33:26;5.25;;;1.27;;
5774;SDS011;2913;51.120;6.772;2022-10-16T10:44:06;4.82;;;1.40;;
5774;SDS011;2913;51.120;6.772;2022-10-16T10:46:49;6.88;;;1.58;;
5774;SDS011;2913;51.120;6.772;2022-10-16T11:06:11;5.40;;;1.17;;
5774;SDS011;2913;51.120;6.772;2022-10-16T11:11:34;6.03;;;1.05;;
5774;SDS011;2913;51.120;6.772;2022-10-16T11:19:40;3.30;;;0.93;;
5774;SDS011;2913;51.120;6.772;2022-10-16T11:27:45;6.03;;;1.20;;
5774;SDS011;2913;51.120;6.772;2022-10-16T11:33:55;5.93;;;0.80;;
5774;SDS011;2913;51.120;6.772;2022-10-16T11:36:36;6.88;;;1.00;;
5774;SDS011;2913;51.120;6.772;2022-10-16T11:39:18;4.22;;;1.00;;
5774;SDS011;2913;51.120;6.772;2022-10-16T11:49:52;4.93;;;1.00;;
5774;SDS011;2913;51.120;6.772;2022-10-16T12:00:55;5.33;;;0.90;;
5774;SDS011;2913;51.120;6.772;2022-10-16T12:03:41;3.83;;;0.82;;
5774;SDS011;2913;51.120;6.772;2022-10-16T12:08:55;1.02;;;0.70;;
5774;SDS011;2913;51.120;6.772;2022-10-16T12:11:31;3.35;;;0.82;;
5774;SDS011;2913;51.120;6.772;2022-10-16T12:16:37;4.38;;;0.90;;
5774;SDS011;2913;51.120;6.772;2022-10-16T12:21:35;5.93;;;1.42;;
5774;SDS011;2913;51.120;6.772;2022-10-16T12:24:02;3.05;;;0.90;;
5774;SDS011;2913;51.120;6.772;2022-10-16T12:26:34;4.43;;;0.80;;
5774;SDS011;2913;51.120;6.772;2022-10-16T12:32:22;1.92;;;0.90;;
5774;SDS011;2913;51.120;6.772;2022-10-16T12:34:54;3.22;;;1.00;;
5774;SDS011;2913;51.120;6.772;2022-10-16T12:37:21;3.17;;;1.15;;
5774;SDS011;2913;51.120;6.772;2022-10-16T12:39:53;4.15;;;1.35;;
5774;SDS011;2913;51.120;6.772;2022-10-16T12:44:52;5.63;;;1.38;;
5774;SDS011;2913;51.120;6.772;2022-10-16T12:47:35;7.78;;;1.73;;
5774;SDS011;2913;51.120;6.772;2022-10-16T12:50:03;11.48;;;1.58;;
5774;SDS011;2913;51.120;6.772;2022-10-16T12:52:48;12.35;;;2.10;;
5774;SDS011;2913;51.120;6.772;2022-10-16T12:55:17;5.22;;;2.03;;
5774;SDS011;2913;51.120;6.772;2022-10-16T13:17:37;3.10;;;1.13;;
5774;SDS011;2913;51.120;6.772;2022-10-16T13:20:49;9.45;;;1.50;;
5774;SDS011;2913;51.120;6.772;2022-10-16T13:23:17;3.40;;;0.98;;
5774;SDS011;2913;51.120;6.772;2022-10-16T13:26:02;6.75;;;0.98;;
5774;SDS011;2913;51.120;6.772;2022-10-16T13:28:47;5.40;;;0.98;;
5774;SDS011;2913;51.120;6.772;2022-10-16T13:31:17;4.30;;;1.08;;
5774;SDS011;2913;51.120;6.772;2022-10-16T13:33:47;8.90;;;1.92;;
5774;SDS011;2913;51.120;6.772;2022-10-16T13:36:21;3.10;;;0.93;;
5774;SDS011;2913;51.120;6.772;2022-10-16T13:39:26;9.35;;;1.15;;
5774;SDS011;2913;51.120;6.772;2022-10-16T13:42:02;7.78;;;1.17;;
5774;SDS011;2913;51.120;6.772;2022-10-16T13:44:42;2.60;;;0.90;;
5774;SDS011;2913;51.120;6.772;2022-10-16T13:47:24;10.35;;;1.33;;
5774;SDS011;2913;51.120;6.772;2022-10-16T13:50:08;3.93;;;1.03;;
5774;SDS011;2913;51.120;6.772;2022-10-16T13:52:40;6.03;;;0.98;;
5774;SDS011;2913;51.120;6.772;2022-10-16T13:57:37;5.13;;;1.80;;
5774;SDS011;2913;51.120;6.772;2022-10-16T14:00:02;5.32;;;1.45;;
5774;SDS011;2913;51.120;6.772;2022-10-16T14:02:42;4.63;;;0.80;;
5774;SDS011;2913;51.120;6.772;2022-10-16T14:05:10;3.35;;;1.27;;
5774;SDS011;2913;51.120;6.772;2022-10-16T14:07:38;3.47;;;1.60;;
5774;SDS011;2913;51.120;6.772;2022-10-16T14:10:06;3.72;;;1.50;;
5774;SDS011;2913;51.120;6.772;2022-10-16T14:12:57;11.90;;;1.40;;
5774;SDS011;2913;51.120;6.772;2022-10-16T14:15:26;6.80;;;1.92;;
5774;SDS011;2913;51.120;6.772;2022-10-16T14:17:55;6.88;;;1.55;;
5774;SDS011;2913;51.120;6.772;2022-10-16T14:20:23;3.78;;;1.15;;
5774;SDS011;2913;51.120;6.772;2022-10-16T14:23:00;6.15;;;0.95;;
5774;SDS011;2913;51.120;6.772;2022-10-16T14:25:31;4.65;;;1.42;;
5774;SDS011;2913;51.120;6.772;2022-10-16T14:28:18;7.25;;;1.02;;
5774;SDS011;2913;51.120;6.772;2022-10-16T14:36:02;1.83;;;0.80;;
5774;SDS011;2913;51.120;6.772;2022-10-16T14:38:28;4.00;;;0.80;;
5774;SDS011;2913;51.120;6.772;2022-10-16T14:40:54;5.13;;;1.38;;
5774;SDS011;2913;51.120;6.772;2022-10-16T14:43:30;5.88;;;1.73;;
5774;SDS011;2913;51.120;6.772;2022-10-16T14:45:56;4.20;;;1.40;;
5774;SDS011;2913;51.120;6.772;2022-10-16T14:48:22;8.35;;;1.35;;
5774;SDS011;2913;51.120;6.772;2022-10-16T14:50:48;8.05;;;1.48;;
5774;SDS011;2913;51.120;6.772;2022-10-16T14:53:14;8.65;;;1.88;;
5774;SDS011;2913;51.120;6.772;2022-10-16T14:55:41;4.25;;;0.80;;
5774;SDS011;2913;51.120;6.772;2022-10-16T14:58:20;6.28;;;0.75;;
5774;SDS011;2913;51.120;6.772;2022-10-16T15:00:47;6.07;;;1.25;;
5774;SDS011;2913;51.120;6.772;2022-10-16T15:03:14;8.93;;;0.93;;
5774;SDS011;2913;51.120;6.772;2022-10-16T15:05:42;4.13;;;0.80;;
5774;SDS011;2913;51.120;6.772;2022-10-16T15:08:10;6.95;;;1.17;;
5774;SDS011;2913;51.120;6.772;2022-10-16T15:10:38;7.65;;;1.00;;
5774;SDS011;2913;51.120;6.772;2022-10-16T15:13:09;5.88;;;1.60;;
5774;SDS011;2913;51.120;6.772;2022-10-16T15:15:39;5.95;;;1.23;;
5774;SDS011;2913;51.120;6.772;2022-10-16T15:18:08;10.05;;;3.30;;
5774;SDS011;2913;51.120;6.772;2022-10-16T15:20:34;12.77;;;3.13;;
5774;SDS011;2913;51.120;6.772;2022-10-16T15:23:04;10.77;;;1.40;;
5774;SDS011;2913;51.120;6.772;2022-10-16T15:25:43;4.18;;;1.23;;
5774;SDS011;2913;51.120;6.772;2022-10-16T15:28:17;5.18;;;1.00;;
5774;SDS011;2913;51.120;6.772;2022-10-16T15:30:43;4.22;;;0.90;;
5774;SDS011;2913;51.120;6.772;2022-10-16T15:33:17;10.52;;;1.30;;
5774;SDS011;2913;51.120;6.772;2022-10-16T15:35:47;6.60;;;0.90;;
5774;SDS011;2913;51.120;6.772;2022-10-16T15:38:14;8.50;;;1.52;;
5774;SDS011;2913;51.120;6.772;2022-10-16T15:40:43;9.88;;;1.42;;
5774;SDS011;2913;51.120;6.772;2022-10-16T15:43:09;4.80;;;2.15;;
5774;SDS011;2913;51.120;6.772;2022-10-16T15:45:37;5.30;;;1.20;;
5774;SDS011;2913;51.120;6.772;2022-10-16T15:48:03;5.95;;;1.50;;
5774;SDS011;2913;51.120;6.772;2022-10-16T15:50:31;14.82;;;7.05;;
5774;SDS011;2913;51.120;6.772;2022-10-16T15:52:57;16.35;;;6.97;;
5774;SDS011;2913;51.120;6.772;2022-10-16T15:55:23;17.13;;;2.72;;
5774;SDS011;2913;51.120;6.772;2022-10-16T15:57:52;7.00;;;2.08;;
5774;SDS011;2913;51.120;6.772;2022-10-16T16:00:20;4.82;;;2.22;;
5774;SDS011;2913;51.120;6.772;2022-10-16T16:02:50;7.82;;;2.90;;
5774;SDS011;2913;51.120;6.772;2022-10-16T16:05:19;15.05;;;3.20;;
5774;SDS011;2913;51.120;6.772;2022-10-16T16:07:46;4.85;;;1.67;;
5774;SDS011;2913;51.120;6.772;2022-10-16T16:10:13;5.40;;;1.20;;
5774;SDS011;2913;51.120;6.772;2022-10-16T16:12:42;10.52;;;3.60;;
5774;SDS011;2913;51.120;6.772;2022-10-16T16:15:08;12.45;;;4.22;;
5774;SDS011;2913;51.120;6.772;2022-10-16T16:17:37;6.95;;;3.25;;
5774;SDS011;2913;51.120;6.772;2022-10-16T16:20:03;5.22;;;2.33;;
5774;SDS011;2913;51.120;6.772;2022-10-16T16:22:30;15.07;;;2.10;;
5774;SDS011;2913;51.120;6.772;2022-10-16T16:24:58;5.35;;;2.30;;
5774;SDS011;2913;51.120;6.772;2022-10-16T16:27:24;7.47;;;1.60;;
5774;SDS011;2913;51.120;6.772;2022-10-16T16:29:50;6.07;;;1.55;;
5774;SDS011;2913;51.120;6.772;2022-10-16T16:32:15;5.00;;;2.00;;
5774;SDS011;2913;51.120;6.772;2022-10-16T16:34:43;6.07;;;2.65;;
5774;SDS011;2913;51.120;6.772;2022-10-16T16:37:09;6.53;;;2.03;;
5774;SDS011;2913;51.120;6.772;2022-10-16T16:39:37;7.78;;;2.47;;
5774;SDS011;2913;51.120;6.772;2022-10-16T16:42:05;10.10;;;2.35;;
5774;SDS011;2913;51.120;6.772;2022-10-16T16:44:35;5.35;;;2.33;;
5774;SDS011;2913;51.120;6.772;2022-10-16T16:47:01;6.50;;;2.40;;
5774;SDS011;2913;51.120;6.772;2022-10-16T16:49:27;8.65;;;2.28;;
5774;SDS011;2913;51.120;6.772;2022-10-16T16:51:53;9.77;;;1.85;;
5774;SDS011;2913;51.120;6.772;2022-10-16T16:54:19;7.80;;;2.13;;
5774;SDS011;2913;51.120;6.772;2022-10-16T16:56:45;6.70;;;2.38;;
5774;SDS011;2913;51.120;6.772;2022-10-16T16:59:14;5.97;;;2.10;;
5774;SDS011;2913;51.120;6.772;2022-10-16T17:01:44;6.05;;;2.70;;
5774;SDS011;2913;51.120;6.772;2022-10-16T17:04:11;5.60;;;3.03;;
5774;SDS011;2913;51.120;6.772;2022-10-16T17:06:38;3.95;;;2.53;;
5774;SDS011;2913;51.120;6.772;2022-10-16T17:09:05;11.68;;;3.03;;
5774;SDS011;2913;51.120;6.772;2022-10-16T17:11:31;8.18;;;2.35;;
5774;SDS011;2913;51.120;6.772;2022-10-16T17:13:58;11.82;;;3.42;;
5774;SDS011;2913;51.120;6.772;2022-10-16T17:16:26;13.15;;;5.68;;
5774;SDS011;2913;51.120;6.772;2022-10-16T17:18:54;14.00;;;6.05;;
5774;SDS011;2913;51.120;6.772;2022-10-16T17:21:20;10.23;;;5.10;;
5774;SDS011;2913;51.120;6.772;2022-10-16T17:23:46;5.85;;;3.60;;
5774;SDS011;2913;51.120;6.772;2022-10-16T17:26:16;5.63;;;3.38;;
5774;SDS011;2913;51.120;6.772;2022-10-16T17:28:41;11.95;;;3.50;;
5774;SDS011;2913;51.120;6.772;2022-10-16T17:31:15;9.80;;;3.80;;
5774;SDS011;2913;51.120;6.772;2022-10-16T17:33:42;8.23;;;4.18;;
5774;SDS011;2913;51.120;6.772;2022-10-16T17:36:11;8.88;;;4.10;;
5774;SDS011;2913;51.120;6.772;2022-10-16T17:38:40;8.27;;;2.70;;
5774;SDS011;2913;51.120;6.772;2022-10-16T17:41:17;9.57;;;3.03;;
5774;SDS011;2913;51.120;6.772;2022-10-16T17:43:42;7.32;;;2.75;;
5774;SDS011;2913;51.120;6.772;2022-10-16T17:46:09;4.63;;;2.60;;
5774;SDS011;2913;51.120;6.772;2022-10-16T17:48:44;7.00;;;4.20;;
5774;SDS011;2913;51.120;6.772;2022-10-16T17:51:13;5.55;;;2.92;;